सभी
Briscoes Catarina Ranch Airport (Catarina, TX) 1TE1 मौसम
There is no TAF data available at 1TE1 or any nearby airports.
There is no METAR data available at 1TE1. Showing METAR data for KCZT (19 mi N).
Recent CZT METAR history (no data for 1TE1)
| Date | Time (CDT) | Flight Rules | Wind Dir. | Speed | Type | Height AGL (ft) | Visibility | Temp (°C) | Temp (°F) | Dew Point (°C) | Dew Point (°F) | Rel. Humid. | Pressure | Density Altitude | Remarks |
|---|---|---|---|---|---|---|---|---|---|---|---|---|---|---|---|
| 02-मई | 09:15 | VFR | 30° | 7 kt | 10 miles | 15° | 59° | 8° | 46° | 63% | 30.20 in Hg | 318 ft | |||
| 02-मई | 08:55 | VFR | 20° | 6 kt | 10 miles | 15° | 59° | 9° | 48° | 67% | 30.19 in Hg | 328 ft | |||
| 02-मई | 08:15 | VFR | 360° | 3 kt | 10 miles | 13° | 55° | 12° | 53° | 94% | 30.18 in Hg | 98 ft | |||
| 02-मई | 07:55 | VFR | 350° | 5 kt | 10 miles | 13° | 55° | 12° | 53° | 94% | 30.17 in Hg | 108 ft | |||
| 02-मई | 07:35 | VFR | 330° | 4 kt | 10 miles | 12° | 53° | 12° | 53° | 100% | 30.17 in Hg | -12 ft | |||
| 02-मई | 07:15 | VFR | 330° | 3 kt | 10 miles | 12° | 53° | 12° | 53° | 100% | 30.16 in Hg | -2 ft | |||
| 02-मई | 06:55 | VFR | 330° | 4 kt | 10 miles | 12° | 53° | 12° | 53° | 100% | 30.15 in Hg | 8 ft | |||
| 02-मई | 06:35 | VFR | 350° | 4 kt | 10 miles | 12° | 53° | 12° | 53° | 100% | 30.14 in Hg | 18 ft | |||
| 02-मई | 06:15 | VFR | 340° | 3 kt | 10 miles | 12° | 53° | 12° | 53° | 100% | 30.14 in Hg | 18 ft | |||
| 02-मई | 05:55 | VFR | 350° | 4 kt | 10 miles | 12° | 53° | 12° | 53° | 100% | 30.13 in Hg | 28 ft | |||
| 02-मई | 05:15 | VFR | 350° | 3 kt | 10 miles | 12° | 53° | 12° | 53° | 100% | 30.12 in Hg | 38 ft | |||
| 02-मई | 04:55 | VFR | 340° | 3 kt | 10 miles | 12° | 53° | 12° | 53° | 100% | 30.13 in Hg | 28 ft | |||
| 02-मई | 04:35 | VFR | 290° | 3 kt | 10 miles | 12° | 53° | 12° | 53° | 100% | 30.13 in Hg | 28 ft | |||
| 02-मई | 04:15 | VFR | Calm | 10 miles | 12° | 53° | 12° | 53° | 100% | 30.12 in Hg | 38 ft | ||||
| 02-मई | 03:55 | VFR | Calm | 10 miles | 12° | 53° | 10° | 50° | 88% | 30.12 in Hg | 38 ft | ||||
| 02-मई | 03:15 | VFR | 350° | 3 kt | 10 miles | 13° | 55° | 10° | 50° | 82% | 30.12 in Hg | 158 ft | |||
| 02-मई | 02:55 | VFR | 10° | 3 kt | 10 miles | 13° | 55° | 10° | 50° | 82% | 30.11 in Hg | 168 ft | |||
| 02-मई | 02:35 | VFR | 360° | 4 kt | 10 miles | 13° | 55° | 10° | 50° | 82% | 30.11 in Hg | 168 ft | |||
| 02-मई | 02:15 | VFR | 20° | 4 kt | 10 miles | 13° | 55° | 10° | 50° | 82% | 30.11 in Hg | 168 ft | |||
| 02-मई | 01:35 | VFR | 30° | 5 kt | 10 miles | 15° | 59° | 11° | 51° | 77% | 30.11 in Hg | 408 ft | |||
| 02-मई | 01:15 | VFR | 10° | 5 kt | 10 miles | 15° | 59° | 12° | 53° | 82% | 30.11 in Hg | 408 ft | |||
| 02-मई | 00:55 | VFR | 10° | 4 kt | 10 miles | 15° | 59° | 12° | 53° | 82% | 30.10 in Hg | 418 ft | |||
| 02-मई | 00:15 | VFR | 40° | 4 kt | 10 miles | 15° | 59° | 12° | 53° | 82% | 30.09 in Hg | 428 ft | |||
| 01-मई | 23:55 | VFR | 30° | 5 kt | 10 miles | 15° | 59° | 12° | 53° | 82% | 30.09 in Hg | 428 ft |
लॉगिन
| Your browser is unsupported. अपना ब्राऊजर अपग्रेड करें |
